createdAt,value
2017-08-21T00:01:01.822Z,2.05
2017-08-21T00:03:29.391Z,2.83
2017-08-21T00:05:56.959Z,2.65
2017-08-21T00:08:24.498Z,2.33
2017-08-21T00:10:52.054Z,2.10
2017-08-21T00:13:19.615Z,1.90
2017-08-21T00:15:47.161Z,2.22
2017-08-21T00:18:14.750Z,1.90
2017-08-21T00:20:42.303Z,1.85
2017-08-21T00:23:10.635Z,1.77
2017-08-21T00:25:38.186Z,2.35
2017-08-21T00:28:05.798Z,2.55
2017-08-21T00:30:33.326Z,2.22
2017-08-21T00:33:00.886Z,2.30
2017-08-21T00:35:28.443Z,3.25
2017-08-21T00:37:56.008Z,2.75
2017-08-21T00:40:23.546Z,2.35
2017-08-21T00:42:51.098Z,2.20
2017-08-21T00:45:19.418Z,2.45
2017-08-21T00:47:47.024Z,2.40
2017-08-21T00:50:14.594Z,2.37
2017-08-21T00:52:42.147Z,2.05
2017-08-21T00:55:09.738Z,2.30
2017-08-21T00:57:38.036Z,2.42
2017-08-21T01:00:05.602Z,2.30
2017-08-21T01:02:33.254Z,2.33
2017-08-21T01:05:01.612Z,2.40
2017-08-21T01:07:29.173Z,2.10
2017-08-21T01:09:56.747Z,2.80
2017-08-21T01:12:24.292Z,1.95
2017-08-21T01:14:51.858Z,1.92
2017-08-21T01:17:19.381Z,2.00
2017-08-21T01:19:46.940Z,2.50
2017-08-21T01:22:14.496Z,2.45
2017-08-21T01:24:43.818Z,2.20
2017-08-21T01:27:11.384Z,1.83
2017-08-21T01:29:38.964Z,2.58
2017-08-21T01:32:06.526Z,2.55
2017-08-21T01:34:34.088Z,2.30
2017-08-21T01:37:01.648Z,2.20
2017-08-21T01:39:29.217Z,2.33
2017-08-21T01:41:56.766Z,2.30
2017-08-21T01:44:24.365Z,2.17
2017-08-21T01:46:51.915Z,2.80
2017-08-21T01:49:19.444Z,1.98
2017-08-21T01:51:47.790Z,2.70
2017-08-21T01:54:15.345Z,2.30
2017-08-21T01:56:42.908Z,2.05
2017-08-21T01:59:10.465Z,2.62
2017-08-21T02:01:38.026Z,2.45
2017-08-21T02:04:05.601Z,2.40
2017-08-21T02:06:33.141Z,2.62
2017-08-21T02:09:00.700Z,2.30
2017-08-21T02:11:28.241Z,2.65
2017-08-21T02:13:56.576Z,2.00
2017-08-21T02:16:24.114Z,2.40
2017-08-21T02:18:51.708Z,2.50
2017-08-21T02:21:19.245Z,2.90
2017-08-21T02:23:46.813Z,2.58
2017-08-21T02:26:14.359Z,2.00
2017-08-21T02:28:42.693Z,2.28
2017-08-21T02:31:10.269Z,2.28
2017-08-21T02:33:37.840Z,2.75
2017-08-21T02:36:05.392Z,2.50
2017-08-21T02:38:44.879Z,2.45
2017-08-21T02:41:12.431Z,2.28
2017-08-21T02:43:39.990Z,2.55
2017-08-21T02:46:07.577Z,2.03
2017-08-21T02:48:35.121Z,2.45
2017-08-21T02:51:03.462Z,2.40
2017-08-21T02:53:31.022Z,1.90
2017-08-21T02:55:58.582Z,2.28
2017-08-21T02:58:27.169Z,2.30
2017-08-21T03:00:57.362Z,1.90
2017-08-21T03:03:25.875Z,2.45
2017-08-21T03:05:55.106Z,2.25
2017-08-21T03:08:22.668Z,2.15
2017-08-21T03:10:50.221Z,2.67
2017-08-21T03:13:17.783Z,2.30
2017-08-21T03:15:45.392Z,2.87
2017-08-21T03:18:13.719Z,2.80
2017-08-21T03:20:41.296Z,1.95
2017-08-21T03:23:08.833Z,2.90
2017-08-21T03:25:36.672Z,2.45
2017-08-21T03:28:04.861Z,2.60
2017-08-21T03:30:33.184Z,3.00
2017-08-21T03:33:00.769Z,2.62
2017-08-21T03:35:28.296Z,3.25
2017-08-21T03:37:55.858Z,2.62
2017-08-21T03:40:23.408Z,2.45
2017-08-21T03:42:51.774Z,2.92
2017-08-21T03:45:20.081Z,2.55
2017-08-21T03:47:50.792Z,2.28
2017-08-21T03:50:19.127Z,2.85
2017-08-21T03:52:46.715Z,2.37
2017-08-21T03:55:43.757Z,2.87
2017-08-21T03:58:11.303Z,2.90
2017-08-21T04:00:38.809Z,2.72
2017-08-21T04:03:06.323Z,2.87
2017-08-21T04:05:33.880Z,2.67
2017-08-21T04:08:01.394Z,2.92
2017-08-21T04:10:28.938Z,2.50
2017-08-21T04:12:56.468Z,2.55
2017-08-21T04:15:23.997Z,2.62
2017-08-21T04:17:51.515Z,2.80
2017-08-21T04:20:19.055Z,2.60
2017-08-21T04:22:46.570Z,3.42
2017-08-21T04:25:14.113Z,2.70
2017-08-21T04:27:41.626Z,3.20
2017-08-21T04:30:09.138Z,2.58
2017-08-21T04:32:36.709Z,2.65
2017-08-21T04:35:04.255Z,2.50
2017-08-21T04:37:31.785Z,2.35
2017-08-21T04:39:59.293Z,2.47
2017-08-21T04:42:26.833Z,2.60
2017-08-21T04:44:54.351Z,2.20
2017-08-21T04:47:21.894Z,2.58
2017-08-21T04:49:49.409Z,2.00
2017-08-21T04:52:16.939Z,2.42
2017-08-21T04:54:44.451Z,2.50
2017-08-21T04:57:11.989Z,2.65
2017-08-21T04:59:39.511Z,2.30
2017-08-21T05:02:07.086Z,2.33
2017-08-21T05:04:34.614Z,2.55
2017-08-21T05:07:02.130Z,2.78
2017-08-21T05:09:29.661Z,2.80
2017-08-21T05:11:57.198Z,2.85
2017-08-21T05:14:24.734Z,2.58
2017-08-21T05:16:52.251Z,2.80
2017-08-21T05:19:19.795Z,2.47
2017-08-21T05:21:47.304Z,2.35
2017-08-21T05:24:14.852Z,3.17
2017-08-21T05:26:42.370Z,2.42
2017-08-21T05:29:09.908Z,3.05
2017-08-21T05:31:37.415Z,2.75
2017-08-21T05:34:04.958Z,2.47
2017-08-21T05:36:32.476Z,2.83
2017-08-21T05:39:00.021Z,2.55
2017-08-21T05:41:27.541Z,2.60
2017-08-21T05:43:55.070Z,2.25
2017-08-21T05:46:22.673Z,3.12
2017-08-21T05:48:50.197Z,2.83
2017-08-21T05:51:17.737Z,2.57
2017-08-21T05:53:45.257Z,2.33
2017-08-21T05:56:12.793Z,2.17
2017-08-21T05:58:40.337Z,2.50
2017-08-21T06:01:07.881Z,2.33
2017-08-21T06:03:35.413Z,2.40
2017-08-21T06:06:02.956Z,2.77
2017-08-21T06:08:30.467Z,2.10
2017-08-21T06:10:58.020Z,2.33
2017-08-21T06:13:25.537Z,2.50
2017-08-21T06:15:53.138Z,3.03
2017-08-21T06:18:20.663Z,2.80
2017-08-21T06:20:48.258Z,2.20
2017-08-21T06:23:15.774Z,2.90
2017-08-21T06:25:43.285Z,2.33
2017-08-21T06:28:10.842Z,2.60
2017-08-21T06:30:38.468Z,2.80
2017-08-21T06:33:06.046Z,2.60
2017-08-21T06:35:33.571Z,2.63
2017-08-21T06:38:01.110Z,2.50
2017-08-21T06:40:28.630Z,2.50
2017-08-21T06:42:56.187Z,2.30
2017-08-21T06:45:23.723Z,2.90
2017-08-21T06:47:51.266Z,2.70
2017-08-21T06:50:18.853Z,2.63
2017-08-21T06:52:46.452Z,2.47
2017-08-21T06:55:14.015Z,2.30
2017-08-21T06:57:41.531Z,2.33
2017-08-21T07:00:09.066Z,2.77
2017-08-21T07:02:36.677Z,2.33
2017-08-21T07:05:04.218Z,2.40
2017-08-21T07:07:31.731Z,2.63
2017-08-21T07:09:59.269Z,2.73
2017-08-21T07:12:26.797Z,2.77
2017-08-21T07:14:54.346Z,2.40
2017-08-21T07:17:21.873Z,2.40
2017-08-21T07:19:49.418Z,2.43
2017-08-21T07:24:54.144Z,2.70
2017-08-21T07:27:21.666Z,2.70
2017-08-21T07:29:49.193Z,2.73
2017-08-21T07:32:16.733Z,2.80
2017-08-21T07:34:44.251Z,2.90
2017-08-21T07:37:11.795Z,3.30
2017-08-21T07:39:39.325Z,2.90
2017-08-21T07:42:06.858Z,2.50
2017-08-21T07:44:34.411Z,3.07
2017-08-21T07:47:01.939Z,3.37
2017-08-21T07:49:29.483Z,2.47
2017-08-21T07:51:57.025Z,2.50
2017-08-21T07:54:24.545Z,2.80
2017-08-21T07:56:52.096Z,2.77
2017-08-21T07:59:19.618Z,2.63
2017-08-21T08:01:47.217Z,2.50
2017-08-21T08:04:15.506Z,2.17
2017-08-21T08:06:43.053Z,2.53
2017-08-21T08:09:10.578Z,2.37
2017-08-21T08:11:38.094Z,2.40
2017-08-21T08:14:05.635Z,2.10
2017-08-21T08:16:33.150Z,2.43
2017-08-21T08:19:00.690Z,2.47
2017-08-21T08:21:28.203Z,2.40
2017-08-21T08:23:56.525Z,2.10
2017-08-21T08:26:24.046Z,2.40
2017-08-21T08:28:51.585Z,2.67
2017-08-21T08:31:19.119Z,2.50
2017-08-21T08:33:46.661Z,2.57
2017-08-21T08:36:14.194Z,2.07
2017-08-21T08:38:41.742Z,2.50
2017-08-21T08:41:09.266Z,2.57
2017-08-21T08:43:36.806Z,2.63
2017-08-21T08:46:04.369Z,2.67
2017-08-21T08:48:31.916Z,1.97
2017-08-21T08:50:59.454Z,2.60
2017-08-21T08:53:27.013Z,2.40
2017-08-21T08:58:31.740Z,2.33
2017-08-21T09:00:59.283Z,3.13
2017-08-21T09:03:27.801Z,2.53
2017-08-21T09:05:55.359Z,2.63
2017-08-21T09:08:22.914Z,2.60
2017-08-21T09:10:50.465Z,2.63
2017-08-21T09:13:17.982Z,2.40
2017-08-21T09:15:45.519Z,2.43
2017-08-21T09:18:13.035Z,2.13
2017-08-21T09:20:40.578Z,2.40
2017-08-21T09:23:08.098Z,1.80
2017-08-21T09:25:35.611Z,2.70
2017-08-21T09:28:03.151Z,2.60
2017-08-21T09:30:30.677Z,2.27
2017-08-21T09:32:58.241Z,2.40
2017-08-21T09:35:25.758Z,2.30
2017-08-21T09:37:53.302Z,1.97
2017-08-21T09:40:20.821Z,2.17
2017-08-21T09:42:48.356Z,2.20
2017-08-21T09:45:15.899Z,2.20
2017-08-21T09:47:43.447Z,2.10
2017-08-21T09:50:10.993Z,2.40
2017-08-21T09:52:38.534Z,2.30
2017-08-21T09:55:06.054Z,2.23
2017-08-21T09:57:33.595Z,1.90
2017-08-21T10:00:01.115Z,2.10
2017-08-21T10:02:28.636Z,2.90
2017-08-21T10:04:56.182Z,2.10
2017-08-21T10:07:23.721Z,2.63
2017-08-21T10:09:51.266Z,2.77
2017-08-21T10:12:18.798Z,1.90
2017-08-21T10:14:46.333Z,2.27
2017-08-21T10:17:13.869Z,2.17
2017-08-21T10:19:41.480Z,2.60
2017-08-21T10:22:09.010Z,2.10
2017-08-21T10:24:36.548Z,2.33
2017-08-21T10:27:04.072Z,2.27
2017-08-21T10:29:32.046Z,2.03
2017-08-21T10:31:59.566Z,2.00
2017-08-21T10:34:27.133Z,2.20
2017-08-21T10:36:54.662Z,1.93
2017-08-21T10:39:22.181Z,2.10
2017-08-21T10:41:49.718Z,1.90
2017-08-21T10:44:17.238Z,2.10
2017-08-21T10:46:44.780Z,2.20
2017-08-21T10:49:12.299Z,3.00
2017-08-21T10:51:39.858Z,2.70
2017-08-21T10:54:07.387Z,2.50
2017-08-21T10:56:34.920Z,2.60
2017-08-21T10:59:02.455Z,2.60
2017-08-21T11:01:29.982Z,2.50
2017-08-21T11:03:57.542Z,2.67
2017-08-21T11:06:25.078Z,2.70
2017-08-21T11:08:52.598Z,2.60
2017-08-21T11:11:20.134Z,2.60
2017-08-21T11:13:47.648Z,2.60
2017-08-21T11:16:15.218Z,2.40
2017-08-21T11:18:42.746Z,3.10
2017-08-21T11:21:10.261Z,2.20
2017-08-21T11:23:37.795Z,2.60
2017-08-21T11:26:05.327Z,2.73
2017-08-21T11:28:32.842Z,1.90
2017-08-21T11:31:00.377Z,2.77
2017-08-21T11:33:27.898Z,1.80
2017-08-21T11:35:55.464Z,2.73
2017-08-21T11:38:22.982Z,2.57
2017-08-21T11:40:50.516Z,2.70
2017-08-21T11:43:18.030Z,3.03
2017-08-21T11:45:45.567Z,2.83
2017-08-21T11:48:13.082Z,2.90
2017-08-21T11:50:40.623Z,2.57
2017-08-21T11:53:08.141Z,2.70
2017-08-21T11:55:35.682Z,3.13
2017-08-21T11:58:03.201Z,2.97
2017-08-21T12:00:30.743Z,2.67
2017-08-21T12:02:58.270Z,3.00
2017-08-21T12:05:25.830Z,2.60
2017-08-21T12:07:53.345Z,2.80
2017-08-21T12:10:20.864Z,2.60
2017-08-21T12:12:48.405Z,2.57
2017-08-21T12:15:15.929Z,2.60
2017-08-21T12:17:43.474Z,2.60
2017-08-21T12:20:11.026Z,1.83
2017-08-21T12:22:38.574Z,2.70
2017-08-21T12:25:06.090Z,2.50
2017-08-21T12:27:33.639Z,2.70
2017-08-21T12:30:01.154Z,2.50
2017-08-21T12:32:29.376Z,2.20
2017-08-21T12:34:56.898Z,1.90
2017-08-21T12:37:24.434Z,2.27
2017-08-21T12:39:51.949Z,2.20
2017-08-21T12:42:19.484Z,2.00
2017-08-21T12:44:47.002Z,2.67
2017-08-21T12:47:14.545Z,2.67
2017-08-21T12:49:42.135Z,2.70
2017-08-21T12:52:09.673Z,2.53
2017-08-21T12:54:37.185Z,2.30
2017-08-21T12:57:04.726Z,2.97
2017-08-21T12:59:32.457Z,2.13
2017-08-21T13:01:59.992Z,2.20
2017-08-21T13:04:27.528Z,1.90
2017-08-21T13:06:55.042Z,2.07
2017-08-21T13:09:22.594Z,2.00
2017-08-21T13:11:50.107Z,2.23
2017-08-21T13:14:17.645Z,1.90
2017-08-21T13:16:45.159Z,2.23
2017-08-21T13:19:12.710Z,1.90
2017-08-21T13:21:40.218Z,2.40
2017-08-21T13:24:07.767Z,2.30
2017-08-21T13:26:35.299Z,2.30
2017-08-21T13:29:02.818Z,2.33
2017-08-21T13:31:30.350Z,2.60
2017-08-21T13:33:57.871Z,2.80
2017-08-21T13:36:25.424Z,2.40
2017-08-21T13:38:52.945Z,2.70
2017-08-21T13:41:20.489Z,3.23
2017-08-21T13:43:48.033Z,2.20
2017-08-21T13:46:15.627Z,2.17
2017-08-21T13:48:43.142Z,2.07
2017-08-21T13:51:10.673Z,2.40
2017-08-21T13:53:38.194Z,2.63
2017-08-21T13:56:05.741Z,2.20
2017-08-21T13:58:33.273Z,2.20
2017-08-21T14:01:00.791Z,2.40
2017-08-21T14:03:28.326Z,2.10
2017-08-21T14:05:55.947Z,2.47
2017-08-21T14:08:23.488Z,2.43
2017-08-21T14:10:51.034Z,2.70
2017-08-21T14:13:18.569Z,2.40
2017-08-21T14:15:46.106Z,2.97
2017-08-21T14:18:14.634Z,3.37
2017-08-21T14:20:42.186Z,2.60
2017-08-21T14:23:09.733Z,2.20
2017-08-21T14:25:37.266Z,2.47
2017-08-21T14:28:04.882Z,2.20
2017-08-21T14:30:32.427Z,2.10
2017-08-21T14:32:59.970Z,2.43
2017-08-21T14:35:27.497Z,2.83
2017-08-21T14:37:55.051Z,2.50
2017-08-21T14:40:22.573Z,2.60
2017-08-21T14:42:50.093Z,2.67
2017-08-21T14:45:17.629Z,2.10
2017-08-21T14:47:45.759Z,2.50
2017-08-21T14:50:13.307Z,3.07
2017-08-21T14:52:40.829Z,2.33
2017-08-21T14:55:08.382Z,2.27
2017-08-21T14:57:35.898Z,2.83
2017-08-21T15:00:03.435Z,2.23
2017-08-21T15:02:30.970Z,2.10
2017-08-21T15:04:58.491Z,2.27
2017-08-21T15:07:26.028Z,2.40
2017-08-21T15:09:53.538Z,3.00
2017-08-21T15:12:21.077Z,1.90
2017-08-21T15:14:48.617Z,2.23
2017-08-21T15:17:16.309Z,1.50
2017-08-21T15:19:43.817Z,1.93
2017-08-21T15:22:11.756Z,2.10
2017-08-21T15:24:39.270Z,2.40
2017-08-21T15:27:06.802Z,2.23
2017-08-21T15:29:34.327Z,2.33
2017-08-21T15:32:01.859Z,2.00
2017-08-21T15:34:29.369Z,1.93
2017-08-21T15:36:56.898Z,2.00
2017-08-21T15:39:24.431Z,1.70
2017-08-21T15:41:51.984Z,1.90
2017-08-21T15:44:19.509Z,2.10
2017-08-21T15:46:47.046Z,1.90
2017-08-21T15:49:14.559Z,2.10
2017-08-21T15:51:42.100Z,1.73
2017-08-21T15:54:09.621Z,2.27
2017-08-21T15:56:37.192Z,2.17
2017-08-21T15:59:04.722Z,2.10
2017-08-21T16:01:32.234Z,2.33
2017-08-21T16:03:59.779Z,2.50
2017-08-21T16:06:27.300Z,1.93
2017-08-21T16:08:54.837Z,2.10
2017-08-21T16:11:22.352Z,1.87
2017-08-21T16:13:49.901Z,1.90
2017-08-21T16:16:17.449Z,2.27
2017-08-21T16:18:45.087Z,2.00
2017-08-21T16:21:12.610Z,1.80
2017-08-21T16:23:40.157Z,2.10
2017-08-21T16:26:07.681Z,2.70
2017-08-21T16:28:35.235Z,2.13
2017-08-21T16:31:02.752Z,2.40
2017-08-21T16:33:30.294Z,2.13
2017-08-21T16:35:57.895Z,2.20
2017-08-21T16:38:25.486Z,2.00
2017-08-21T16:40:53.026Z,2.07
2017-08-21T16:43:20.546Z,2.50
2017-08-21T16:45:48.096Z,1.90
2017-08-21T16:48:15.650Z,1.90
2017-08-21T16:50:43.213Z,2.13
2017-08-21T16:53:10.758Z,2.13
2017-08-21T16:55:38.313Z,2.00
2017-08-21T16:58:05.835Z,1.73
2017-08-21T17:00:33.447Z,1.80
2017-08-21T17:03:00.968Z,2.20
2017-08-21T17:05:28.533Z,1.93
2017-08-21T17:07:56.069Z,2.00
2017-08-21T17:10:23.599Z,1.90
2017-08-21T17:12:51.350Z,1.97
2017-08-21T17:15:18.881Z,2.00
2017-08-21T17:17:47.403Z,1.90
2017-08-21T17:20:14.917Z,1.60
2017-08-21T17:22:42.460Z,2.00
2017-08-21T17:25:09.989Z,2.20
2017-08-21T17:27:37.517Z,1.97
2017-08-21T17:30:05.070Z,2.23
2017-08-21T17:32:33.637Z,2.20
2017-08-21T17:35:01.164Z,2.47
2017-08-21T17:37:28.702Z,2.57
2017-08-21T17:39:56.235Z,1.90
2017-08-21T17:42:23.779Z,1.90
2017-08-21T17:44:51.309Z,1.70
2017-08-21T17:47:18.915Z,2.10
2017-08-21T17:49:47.219Z,2.47
2017-08-21T17:52:14.741Z,2.23
2017-08-21T17:54:42.362Z,1.80
2017-08-21T17:57:09.881Z,1.70
2017-08-21T17:59:37.421Z,1.90
2017-08-21T18:02:04.937Z,1.70
2017-08-21T18:04:32.477Z,2.00
2017-08-21T18:07:00.023Z,2.17
2017-08-21T18:09:27.594Z,2.20
2017-08-21T18:11:55.126Z,2.43
2017-08-21T18:14:22.673Z,2.30
2017-08-21T18:16:50.201Z,2.17
2017-08-21T18:19:17.761Z,1.90
2017-08-21T18:21:45.282Z,1.97
2017-08-21T18:24:12.842Z,2.30
2017-08-21T18:26:40.362Z,1.90
2017-08-21T18:29:07.882Z,2.30
2017-08-21T18:31:35.425Z,1.80
2017-08-21T18:34:02.953Z,2.80
2017-08-21T18:36:30.509Z,2.25
2017-08-21T18:38:58.034Z,2.40
2017-08-21T18:41:25.578Z,2.30
2017-08-21T18:43:53.110Z,2.53
2017-08-21T18:46:20.670Z,2.20
2017-08-21T18:48:48.202Z,2.30
2017-08-21T18:51:15.744Z,2.30
2017-08-21T18:53:43.288Z,2.55
2017-08-21T18:56:10.831Z,2.50
2017-08-21T18:58:38.357Z,2.62
2017-08-21T19:01:05.900Z,2.30
2017-08-21T19:03:33.418Z,2.53
2017-08-21T19:06:00.974Z,3.37
2017-08-21T19:08:28.504Z,2.25
2017-08-21T19:10:56.054Z,2.35
2017-08-21T19:13:23.603Z,2.25
2017-08-21T19:15:51.133Z,2.40
2017-08-21T19:18:18.706Z,2.45
2017-08-21T19:20:46.316Z,3.03
2017-08-21T19:23:13.869Z,3.10
2017-08-21T19:25:41.394Z,2.58
2017-08-21T19:28:08.933Z,2.60
2017-08-21T19:30:36.466Z,2.50
2017-08-21T19:33:04.717Z,2.80
2017-08-21T19:35:32.238Z,3.25
2017-08-21T19:37:59.781Z,3.10
2017-08-21T19:40:27.298Z,2.90
2017-08-21T19:42:54.819Z,2.90
2017-08-21T19:45:22.374Z,3.55
2017-08-21T19:47:49.910Z,2.83
2017-08-21T19:50:17.462Z,2.80
2017-08-21T19:52:44.977Z,2.80
2017-08-21T19:55:12.518Z,2.97
2017-08-21T19:57:40.038Z,3.60
2017-08-21T20:00:07.577Z,3.10
2017-08-21T20:02:35.102Z,3.22
2017-08-21T20:05:02.642Z,3.00
2017-08-21T20:07:30.173Z,4.00
2017-08-21T20:09:57.713Z,3.00
2017-08-21T20:12:25.237Z,2.17
2017-08-21T20:14:52.777Z,2.70
2017-08-21T20:17:20.302Z,3.37
2017-08-21T20:19:47.842Z,3.35
2017-08-21T20:22:15.357Z,2.85
2017-08-21T20:24:42.894Z,2.90
2017-08-21T20:27:10.424Z,3.03
2017-08-21T20:29:37.993Z,3.80
2017-08-21T20:32:05.510Z,3.50
2017-08-21T20:34:33.035Z,3.80
2017-08-21T20:37:00.581Z,2.83
2017-08-21T20:39:28.093Z,3.30
2017-08-21T20:41:55.653Z,3.22
2017-08-21T20:44:23.183Z,3.05
2017-08-21T20:46:50.719Z,3.00
2017-08-21T20:49:18.238Z,3.20
2017-08-21T20:51:45.792Z,2.78
2017-08-21T20:54:13.313Z,3.00
2017-08-21T20:56:40.861Z,3.25
2017-08-21T20:59:08.393Z,3.00
2017-08-21T21:01:35.940Z,3.35
2017-08-21T21:04:03.470Z,3.25
2017-08-21T21:06:31.021Z,3.03
2017-08-21T21:08:58.544Z,3.05
2017-08-21T21:11:26.122Z,3.30
2017-08-21T21:13:53.641Z,3.70
2017-08-21T21:16:21.192Z,3.55
2017-08-21T21:18:48.725Z,3.42
2017-08-21T21:21:16.255Z,3.87
2017-08-21T21:23:43.791Z,3.70
2017-08-21T21:26:11.307Z,3.17
2017-08-21T21:28:38.846Z,3.30
2017-08-21T21:31:06.364Z,3.62
2017-08-21T21:33:33.897Z,3.40
2017-08-21T21:36:01.409Z,3.97
2017-08-21T21:38:28.948Z,3.53
2017-08-21T21:40:56.470Z,3.50
2017-08-21T21:43:24.028Z,3.83
2017-08-21T21:45:51.543Z,3.25
2017-08-21T21:48:19.087Z,3.17
2017-08-21T21:50:47.322Z,3.50
2017-08-21T21:53:14.882Z,3.50
2017-08-21T21:55:42.402Z,3.80
2017-08-21T21:58:09.922Z,3.40
2017-08-21T22:00:37.462Z,3.40
2017-08-21T22:03:04.991Z,3.45
2017-08-21T22:05:32.529Z,3.40
2017-08-21T22:08:00.046Z,3.33
2017-08-21T22:10:27.606Z,4.03
2017-08-21T22:12:55.122Z,3.70
2017-08-21T22:15:22.656Z,3.22
2017-08-21T22:17:50.175Z,3.45
2017-08-21T22:20:17.704Z,4.30
2017-08-21T22:22:45.226Z,3.90
2017-08-21T22:25:12.770Z,3.62
2017-08-21T22:27:40.285Z,3.45
2017-08-21T22:30:07.818Z,3.62
2017-08-21T22:32:35.531Z,4.00
2017-08-21T22:35:03.075Z,3.97
2017-08-21T22:37:30.593Z,4.10
2017-08-21T22:39:58.106Z,4.03
2017-08-21T22:42:25.638Z,3.55
2017-08-21T22:44:53.154Z,3.85
2017-08-21T22:47:20.687Z,3.83
2017-08-21T22:49:48.206Z,4.00
2017-08-21T22:52:15.737Z,3.70
2017-08-21T22:54:43.254Z,3.58
2017-08-21T22:57:10.854Z,3.80
2017-08-21T22:59:38.379Z,3.22
2017-08-21T23:02:11.660Z,3.28
2017-08-21T23:04:39.172Z,3.90
2017-08-21T23:07:06.708Z,3.55
2017-08-21T23:09:34.220Z,3.47
2017-08-21T23:12:01.760Z,3.60
2017-08-21T23:14:29.273Z,4.12
2017-08-21T23:16:56.786Z,3.72
2017-08-21T23:19:24.319Z,3.80
2017-08-21T23:21:51.834Z,3.95
2017-08-21T23:24:19.369Z,3.95
2017-08-21T23:26:46.882Z,3.65
2017-08-21T23:29:14.454Z,3.90
2017-08-21T23:31:41.968Z,4.15
2017-08-21T23:34:09.501Z,4.25
2017-08-21T23:36:37.042Z,3.60
2017-08-21T23:39:04.582Z,3.55
2017-08-21T23:41:32.096Z,3.60
2017-08-21T23:43:59.634Z,3.83
2017-08-21T23:46:27.146Z,4.00
2017-08-21T23:48:54.687Z,3.65
2017-08-21T23:51:22.206Z,3.33
2017-08-21T23:53:49.728Z,4.18
2017-08-21T23:56:17.268Z,3.70
2017-08-21T23:58:44.778Z,4.05
